Time;durP1;ratioP1;P1;durP2;ratioP2;P2;SDS_P1;SDS_P2;PMS_P1;PMS_P2;Temp;Humidity;BMP_temperature;BMP_pressure;BME280_temperature;BME280_humidity;BME280_pressure;Samples;Min_cycle;Max_cycle;Signal;HPM_P1;HPM_P2
2023/03/04 05:05:50;;;;;;;11.85;6.03;;;-0.90;99.90;;;;;;5204844;22;20305;-69
2023/03/04 05:08:15;;;;;;;15.13;7.80;;;-0.90;99.90;;;;;;5072950;28;20172;-69
2023/03/04 05:10:41;;;;;;;13.63;4.87;;;-0.90;99.90;;;;;;5073345;28;20169;-70
2023/03/04 05:13:07;;;;;;;11.30;6.50;;;-0.90;99.90;;;;;;5073074;28;20561;-70
2023/03/04 05:15:32;;;;;;;9.27;7.27;;;-1.00;99.90;;;;;;5073109;28;20200;-70
2023/03/04 05:17:58;;;;;;;11.63;7.40;;;-1.00;99.90;;;;;;5073022;28;20261;-70
2023/03/04 05:20:24;;;;;;;12.87;8.50;;;-1.00;99.90;;;;;;5072995;28;20168;-69
2023/03/04 05:22:50;;;;;;;20.77;8.13;;;-1.00;99.90;;;;;;5072640;28;20172;-70
2023/03/04 05:25:15;;;;;;;14.63;6.00;;;-1.00;99.90;;;;;;5073140;28;20583;-68
2023/03/04 05:27:41;;;;;;;8.50;5.50;;;-1.00;99.90;;;;;;5074899;28;20192;-68
2023/03/04 05:30:07;;;;;;;17.93;8.40;;;-1.00;99.90;;;;;;5073034;28;20654;-70
2023/03/04 05:32:33;;;;;;;13.70;7.40;;;-1.00;99.90;;;;;;5073104;28;20642;-68
2023/03/04 05:34:58;;;;;;;9.17;6.07;;;-1.10;99.90;;;;;;5071160;28;20192;-69
2023/03/04 05:37:24;;;;;;;11.03;5.63;;;-1.10;99.90;;;;;;5072725;28;20172;-69
2023/03/04 05:39:49;;;;;;;15.00;7.20;;;-1.10;99.90;;;;;;5072746;28;20218;-70
2023/03/04 05:42:15;;;;;;;19.13;8.47;;;-1.10;99.90;;;;;;5072835;28;20197;-69
2023/03/04 05:44:40;;;;;;;13.73;6.00;;;-1.10;99.90;;;;;;5072375;28;20201;-70
2023/03/04 05:47:06;;;;;;;10.57;6.47;;;-1.10;99.90;;;;;;5072877;28;20162;-70
2023/03/04 05:49:32;;;;;;;11.07;6.20;;;-1.10;99.90;;;;;;5072783;28;20177;-69
2023/03/04 05:51:57;;;;;;;11.97;6.60;;;-1.10;99.90;;;;;;5072312;28;20202;-70
2023/03/04 05:54:23;;;;;;;11.37;5.93;;;-1.10;99.90;;;;;;5071931;28;20190;-69
2023/03/04 05:56:48;;;;;;;10.27;7.40;;;-1.10;99.90;;;;;;5074400;28;20693;-70
2023/03/04 05:59:19;;;;;;;15.13;6.07;;;-1.20;99.90;;;;;;5092586;28;20174;-70
2023/03/04 06:01:45;;;;;;;10.60;7.57;;;-1.10;99.90;;;;;;5092943;28;20187;-70
2023/03/04 06:04:10;;;;;;;7.45;5.60;;;-1.20;99.90;;;;;;5089553;28;20541;-68
2023/03/04 06:06:36;;;;;;;12.67;6.73;;;-1.20;99.90;;;;;;5077718;28;20264;-69
2023/03/04 06:09:02;;;;;;;8.90;6.13;;;-1.20;99.90;;;;;;5096515;28;20519;-69
2023/03/04 06:11:27;;;;;;;10.27;5.70;;;-1.20;99.90;;;;;;5096261;28;20247;-71
2023/03/04 06:13:53;;;;;;;10.60;7.13;;;-1.10;99.90;;;;;;5093648;28;20172;-71
2023/03/04 06:16:18;;;;;;;14.97;8.67;;;-1.10;99.90;;;;;;5094728;28;20639;-69
2023/03/04 06:18:44;;;;;;;14.57;7.20;;;-1.10;99.90;;;;;;5096288;28;20177;-69
2023/03/04 06:21:09;;;;;;;13.33;9.57;;;-1.10;99.90;;;;;;5096095;28;20191;-69
2023/03/04 06:23:35;;;;;;;10.67;5.83;;;-1.00;99.90;;;;;;5095769;28;20167;-61
2023/03/04 06:26:01;;;;;;;13.10;8.07;;;-1.10;99.90;;;;;;5085971;28;20179;-67
2023/03/04 06:28:27;;;;;;;14.43;9.80;;;-1.00;99.90;;;;;;5084604;28;20263;-72
2023/03/04 06:30:55;;;;;;;11.25;8.23;;;-1.00;99.90;;;;;;5078659;28;20180;-70
2023/03/04 06:33:21;;;;;;;20.83;10.55;;;-0.90;99.90;;;;;;5079795;28;20209;-70
2023/03/04 06:35:47;;;;;;;11.80;8.20;;;-0.90;99.90;;;;;;5095470;28;20241;-70
2023/03/04 06:38:12;;;;;;;14.15;8.75;;;-0.90;99.90;;;;;;5095888;28;20394;-74
2023/03/04 06:40:38;;;;;;;11.87;7.90;;;-0.80;99.90;;;;;;5094810;28;20265;-69
2023/03/04 06:43:04;;;;;;;10.93;7.57;;;-0.80;99.90;;;;;;5079780;28;20178;-70
2023/03/04 06:45:29;;;;;;;25.67;10.27;;;-0.70;99.90;;;;;;5055414;28;20185;-69
2023/03/04 06:47:55;;;;;;;9.57;7.97;;;-0.60;99.90;;;;;;5078337;28;20164;-72
2023/03/04 06:50:21;;;;;;;15.87;9.07;;;-0.50;99.90;;;;;;5095099;28;20253;-72
2023/03/04 06:52:48;;;;;;;18.60;10.57;;;-0.50;99.90;;;;;;5095757;28;20170;-67
2023/03/04 06:55:13;;;;;;;17.98;11.68;;;-0.30;99.90;;;;;;5095081;28;20541;-69
2023/03/04 06:57:39;;;;;;;29.97;12.67;;;-0.20;99.90;;;;;;5095439;28;20237;-67
2023/03/04 07:00:05;;;;;;;19.33;10.90;;;-0.20;99.90;;;;;;5078113;28;20194;-68
2023/03/04 07:02:31;;;;;;;11.82;9.15;;;-0.10;99.90;;;;;;5083799;28;20200;-66
2023/03/04 07:04:57;;;;;;;23.67;9.10;;;0.00;99.90;;;;;;5093191;28;20558;-66
2023/03/04 07:07:25;;;;;;;16.23;10.20;;;0.00;99.90;;;;;;5095196;28;20426;-66
2023/03/04 07:09:50;;;;;;;21.73;11.95;;;0.10;99.90;;;;;;5095102;28;20180;-65
2023/03/04 07:12:16;;;;;;;22.43;12.33;;;0.20;99.90;;;;;;5095506;28;20168;-65
2023/03/04 07:14:42;;;;;;;11.87;10.57;;;0.30;99.90;;;;;;5083200;28;20208;-65
2023/03/04 07:17:07;;;;;;;25.43;13.57;;;0.40;99.90;;;;;;5074817;28;20173;-65
2023/03/04 07:19:33;;;;;;;23.73;10.67;;;0.50;99.90;;;;;;5074858;28;20684;-67
2023/03/04 07:21:58;;;;;;;17.97;10.57;;;0.50;99.90;;;;;;5072921;28;20357;-67
2023/03/04 07:24:24;;;;;;;15.10;9.50;;;0.60;99.90;;;;;;5073754;28;20290;-64
2023/03/04 07:26:50;;;;;;;24.90;12.57;;;0.60;99.90;;;;;;5074817;28;20168;-67
2023/03/04 07:29:15;;;;;;;17.60;10.07;;;0.70;99.90;;;;;;5075023;28;20666;-68
2023/03/04 07:31:41;;;;;;;17.80;10.30;;;0.70;99.90;;;;;;5073319;28;20713;-68
2023/03/04 07:34:10;;;;;;;16.83;9.80;;;0.80;99.90;;;;;;5073990;28;20204;-67
2023/03/04 07:36:36;;;;;;;22.35;12.77;;;0.90;99.90;;;;;;5074466;28;20188;-68
2023/03/04 07:39:02;;;;;;;20.40;12.10;;;0.90;99.90;;;;;;5074558;28;20534;-69
2023/03/04 07:41:28;;;;;;;15.90;10.07;;;0.90;99.90;;;;;;5073154;28;20455;-66
2023/03/04 07:43:58;;;;;;;14.88;8.75;;;1.00;99.90;;;;;;5073973;28;20783;-66
2023/03/04 07:46:24;;;;;;;24.00;11.38;;;1.10;99.90;;;;;;5085917;28;20172;-66
2023/03/04 07:48:49;;;;;;;15.25;10.88;;;1.20;99.90;;;;;;5094662;28;20168;-67
2023/03/04 07:51:20;;;;;;;16.40;9.63;;;1.20;99.90;;;;;;5094678;28;20566;-67
2023/03/04 07:53:49;;;;;;;13.55;9.25;;;1.20;99.90;;;;;;5094198;28;20222;-66
2023/03/04 07:56:21;;;;;;;18.80;10.63;;;1.10;99.90;;;;;;5094605;28;20199;-65
2023/03/04 07:58:48;;;;;;;23.48;11.18;;;1.30;99.90;;;;;;5094158;28;20171;-64
2023/03/04 08:01:20;;;;;;;14.88;8.80;;;1.30;99.90;;;;;;5081090;28;20200;-63
2023/03/04 08:03:46;;;;;;;17.25;10.70;;;1.40;99.90;;;;;;5073628;28;20165;-64
2023/03/04 08:06:14;;;;;;;17.70;9.73;;;1.40;99.90;;;;;;5073936;28;20210;-65
2023/03/04 08:08:41;;;;;;;23.67;11.60;;;1.30;99.90;;;;;;5073854;28;20200;-65
2023/03/04 08:11:12;;;;;;;17.40;11.35;;;1.40;99.90;;;;;;5072673;28;20532;-64
2023/03/04 08:13:38;;;;;;;18.58;9.40;;;1.40;99.90;;;;;;5073393;28;20173;-64
2023/03/04 08:16:04;;;;;;;20.63;12.10;;;1.60;99.90;;;;;;5073595;28;20255;-64
2023/03/04 08:18:30;;;;;;;13.98;10.27;;;1.70;99.90;;;;;;5073876;28;20251;-64
2023/03/04 08:20:55;;;;;;;13.43;8.23;;;1.80;99.90;;;;;;5073802;28;20297;-64
2023/03/04 08:23:21;;;;;;;13.83;8.70;;;1.80;99.90;;;;;;5072834;28;20230;-65
2023/03/04 08:25:48;;;;;;;13.88;10.07;;;1.80;99.90;;;;;;5071484;28;20236;-65
2023/03/04 08:28:15;;;;;;;14.10;10.23;;;1.90;99.90;;;;;;5070737;28;20219;-65
2023/03/04 08:30:41;;;;;;;11.23;8.07;;;1.90;99.90;;;;;;5071628;28;20245;-65
2023/03/04 08:33:08;;;;;;;11.85;8.60;;;1.90;99.90;;;;;;5070957;28;20168;-65
2023/03/04 08:35:37;;;;;;;16.10;9.00;;;1.90;99.90;;;;;;5071509;28;20176;-65
2023/03/04 08:38:03;;;;;;;19.08;10.77;;;2.00;99.90;;;;;;5071579;28;20248;-65
2023/03/04 08:40:29;;;;;;;13.97;9.63;;;2.00;99.90;;;;;;5073172;28;20200;-65
2023/03/04 08:42:55;;;;;;;9.45;8.38;;;2.00;99.90;;;;;;5072809;28;20572;-65
2023/03/04 08:45:21;;;;;;;16.63;9.63;;;2.10;99.90;;;;;;5072823;28;20220;-65
2023/03/04 08:47:47;;;;;;;12.60;8.50;;;2.10;99.90;;;;;;5073357;28;20579;-65
2023/03/04 08:50:12;;;;;;;11.57;8.47;;;2.10;99.90;;;;;;5073234;28;20399;-65
2023/03/04 08:52:38;;;;;;;16.17;9.00;;;2.20;99.90;;;;;;5073366;28;20259;-65
2023/03/04 08:55:04;;;;;;;15.27;8.10;;;2.10;99.90;;;;;;5072937;28;20185;-64
2023/03/04 08:57:29;;;;;;;13.37;10.00;;;2.20;99.90;;;;;;5073262;28;20174;-65
2023/03/04 08:59:55;;;;;;;12.50;8.27;;;2.40;99.90;;;;;;5071800;28;20423;-65
2023/03/04 09:02:20;;;;;;;15.40;9.60;;;2.50;99.90;;;;;;5073410;28;20208;-65
2023/03/04 09:04:46;;;;;;;11.40;8.57;;;2.60;99.90;;;;;;5075410;28;20189;-65
2023/03/04 09:07:13;;;;;;;14.73;8.47;;;2.70;99.90;;;;;;5073619;28;20184;-64
2023/03/04 09:09:39;;;;;;;13.30;8.57;;;2.70;99.90;;;;;;5074305;28;20165;-64
2023/03/04 09:12:05;;;;;;;19.20;11.30;;;2.70;99.90;;;;;;5073844;28;20234;-65
2023/03/04 09:14:32;;;;;;;14.95;9.77;;;2.80;99.90;;;;;;5072631;28;20197;-65
2023/03/04 09:16:57;;;;;;;14.02;9.43;;;2.80;99.90;;;;;;5072914;28;20193;-65
2023/03/04 09:19:23;;;;;;;16.77;9.57;;;2.80;99.90;;;;;;5073178;28;20227;-65
2023/03/04 09:21:48;;;;;;;10.60;6.23;;;2.80;99.90;;;;;;5072909;28;20193;-64
2023/03/04 09:24:14;;;;;;;24.20;9.37;;;2.90;99.90;;;;;;5072524;28;20279;-65
2023/03/04 09:26:40;;;;;;;15.50;8.97;;;3.00;99.90;;;;;;5072888;28;20176;-65
2023/03/04 09:29:05;;;;;;;23.13;11.70;;;3.00;99.90;;;;;;5072546;28;20201;-64
2023/03/04 09:31:31;;;;;;;17.87;9.70;;;3.00;99.90;;;;;;5072365;28;20212;-64
2023/03/04 09:33:58;;;;;;;11.00;8.63;;;3.10;99.90;;;;;;5072003;28;20220;-64
2023/03/04 09:36:24;;;;;;;18.20;10.00;;;3.20;99.90;;;;;;5072287;28;20403;-64
2023/03/04 09:38:50;;;;;;;12.32;8.38;;;3.20;99.90;;;;;;5072979;28;20175;-64
2023/03/04 09:41:49;;;;;;;16.77;8.23;;;3.30;99.90;;;;;;5076407;28;20566;-64
2023/03/04 09:44:41;;;;;;;16.40;8.35;;;3.40;99.90;;;;;;5056124;28;20448;-64
2023/03/04 09:47:13;;;;;;;16.33;10.13;;;3.60;99.90;;;;;;5056806;28;20567;-63
2023/03/04 09:49:41;;;;;;;15.15;9.35;;;3.70;99.90;;;;;;5056533;28;20201;-64
2023/03/04 09:52:25;;;;;;;12.93;8.65;;;3.80;99.90;;;;;;5056932;28;20623;-64
2023/03/04 09:55:18;;;;;;;14.63;9.43;;;3.80;99.90;;;;;;5060800;28;20264;-64
2023/03/04 09:58:09;;;;;;;15.10;9.80;;;3.70;99.90;;;;;;5066280;28;20186;-63
2023/03/04 10:00:56;;;;;;;12.35;7.60;;;3.80;99.90;;;;;;5076535;28;20260;-64
2023/03/04 10:03:42;;;;;;;12.30;9.20;;;3.70;99.90;;;;;;5076047;28;20175;-65
2023/03/04 10:06:14;;;;;;;11.02;7.70;;;3.70;99.90;;;;;;5076161;28;20202;-65
2023/03/04 10:09:11;;;;;;;9.55;7.70;;;3.70;99.90;;;;;;5076489;28;20173;-64
2023/03/04 10:11:48;;;;;;;14.45;8.90;;;3.90;99.90;;;;;;5094781;28;20260;-64
2023/03/04 10:14:22;;;;;;;14.13;8.05;;;4.10;99.90;;;;;;5095712;28;20555;-64
2023/03/04 10:16:55;;;;;;;13.30;8.73;;;4.30;99.90;;;;;;5094241;28;20192;-64
2023/03/04 10:19:36;;;;;;;8.73;6.70;;;4.40;99.90;;;;;;5076098;28;20264;-64
2023/03/04 10:22:19;;;;;;;13.38;8.95;;;4.50;99.90;;;;;;5076028;28;20781;-63
2023/03/04 10:24:46;;;;;;;12.95;7.55;;;4.60;99.90;;;;;;5075485;28;20259;-63
2023/03/04 10:27:15;;;;;;;10.55;7.60;;;4.70;99.90;;;;;;5076023;28;20172;-63
2023/03/04 10:29:41;;;;;;;14.70;8.30;;;4.80;99.90;;;;;;5075756;28;20176;-63
2023/03/04 10:32:15;;;;;;;15.87;7.30;;;4.80;99.90;;;;;;5081931;28;20549;-62
2023/03/04 10:34:40;;;;;;;12.52;7.18;;;4.90;99.90;;;;;;5095829;28;20244;-63
2023/03/04 10:37:08;;;;;;;15.27;8.03;;;5.10;99.90;;;;;;5095904;28;20180;-63
2023/03/04 10:39:37;;;;;;;13.70;7.18;;;5.20;99.90;;;;;;5095787;28;20168;-64
2023/03/04 10:42:25;;;;;;;15.75;9.73;;;5.20;99.90;;;;;;5095917;28;20306;-63
2023/03/04 10:44:52;;;;;;;10.20;8.43;;;5.20;99.90;;;;;;5095448;28;20253;-64
2023/03/04 10:47:18;;;;;;;13.35;8.90;;;5.20;99.90;;;;;;5080561;28;20176;-63
2023/03/04 10:49:57;;;;;;;14.43;9.63;;;5.20;99.90;;;;;;5075347;28;20170;-64
2023/03/04 10:52:31;;;;;;;10.82;7.57;;;5.30;99.90;;;;;;5075378;28;20172;-63
2023/03/04 10:55:01;;;;;;;11.88;8.15;;;5.30;99.90;;;;;;5073697;28;20218;-63
2023/03/04 10:57:34;;;;;;;16.02;9.48;;;5.30;99.90;;;;;;5075324;28;20172;-63
2023/03/04 11:00:17;;;;;;;12.30;8.73;;;5.30;99.90;;;;;;5075405;28;20173;-63
2023/03/04 11:02:47;;;;;;;13.52;9.02;;;5.30;99.90;;;;;;5055042;28;20208;-66
2023/03/04 11:05:18;;;;;;;15.93;9.00;;;5.00;99.90;;;;;;5054864;28;20192;-64
2023/03/04 11:07:55;;;;;;;13.27;9.07;;;4.90;99.90;;;;;;5055204;28;20584;-63
2023/03/04 11:10:39;;;;;;;13.88;7.63;;;5.00;99.90;;;;;;5055254;28;20169;-64
2023/03/04 11:13:10;;;;;;;15.07;9.02;;;5.00;99.90;;;;;;5053355;28;20171;-63
2023/03/04 11:15:56;;;;;;;12.30;9.50;;;5.10;99.90;;;;;;5065192;28;20192;-63
2023/03/04 11:18:36;;;;;;;12.65;8.98;;;5.10;99.90;;;;;;5095323;28;20504;-65
2023/03/04 11:21:02;;;;;;;14.70;8.60;;;5.10;99.90;;;;;;5094819;28;20203;-62
2023/03/04 11:24:02;;;;;;;14.93;9.87;;;5.10;99.90;;;;;;5095253;28;20587;-65
2023/03/04 11:26:39;;;;;;;16.15;10.10;;;5.20;99.90;;;;;;5093791;28;20221;-64
2023/03/04 11:29:16;;;;;;;14.25;9.18;;;5.10;99.90;;;;;;5095154;28;20176;-64
2023/03/04 11:31:49;;;;;;;12.90;8.38;;;5.10;99.90;;;;;;5078245;28;20214;-64
2023/03/04 11:34:36;;;;;;;15.02;9.30;;;5.20;99.90;;;;;;5074097;28;20193;-64
2023/03/04 11:37:34;;;;;;;13.77;8.15;;;5.10;99.90;;;;;;5073151;28;20180;-63
2023/03/04 11:40:00;;;;;;;17.63;9.45;;;5.10;99.90;;;;;;5065434;28;20203;-63
2023/03/04 11:42:44;;;;;;;18.60;10.93;;;5.10;99.90;;;;;;5074507;28;20696;-63
2023/03/04 11:45:16;;;;;;;18.50;8.50;;;5.00;99.90;;;;;;5073826;28;20275;-63
2023/03/04 11:47:56;;;;;;;15.80;9.02;;;5.00;99.90;;;;;;5073790;28;20176;-64
2023/03/04 11:50:34;;;;;;;19.00;8.77;;;5.00;99.90;;;;;;5073068;28;20175;-64
2023/03/04 11:53:37;;;;;;;13.40;9.18;;;5.00;99.90;;;;;;5074191;28;20172;-65
2023/03/04 11:56:15;;;;;;;15.90;10.75;;;4.90;99.90;;;;;;5074287;28;20171;-63
2023/03/04 11:59:16;;;;;;;21.30;9.63;;;4.80;99.90;;;;;;5074177;28;20245;-63
2023/03/04 12:02:03;;;;;;;21.75;11.25;;;4.80;99.90;;;;;;5053458;28;20530;-64
2023/03/04 12:05:16;;;;;;;12.48;8.55;;;4.70;99.90;;;;;;5053479;28;20221;-64
2023/03/04 12:07:44;;;;;;;14.15;10.57;;;4.70;99.90;;;;;;5050316;28;20581;-64
2023/03/04 12:10:15;;;;;;;16.67;9.88;;;4.60;99.90;;;;;;5053964;28;20218;-64
2023/03/04 12:12:55;;;;;;;16.67;8.40;;;4.60;99.90;;;;;;5053983;28;20218;-64
2023/03/04 12:15:30;;;;;;;14.70;9.32;;;4.70;99.90;;;;;;5053755;28;20193;-64
2023/03/04 12:18:03;;;;;;;17.23;10.93;;;4.70;99.90;;;;;;5054130;28;20168;-64
2023/03/04 12:20:34;;;;;;;19.67;11.18;;;4.70;99.90;;;;;;5054045;28;20175;-64
2023/03/04 12:23:25;;;;;;;25.88;10.82;;;4.80;99.90;;;;;;5053535;28;20173;-64
2023/03/04 12:26:06;;;;;;;18.30;10.80;;;4.80;99.90;;;;;;5058719;28;20274;-64
2023/03/04 12:28:51;;;;;;;16.40;10.98;;;4.80;99.90;;;;;;5093659;28;20244;-65
2023/03/04 12:31:27;;;;;;;13.85;11.05;;;4.70;99.90;;;;;;5093832;28;20176;-64
2023/03/04 12:34:17;;;;;;;14.45;10.40;;;4.80;99.90;;;;;;5090013;28;20557;-64
2023/03/04 12:36:53;;;;;;;19.98;9.40;;;4.80;99.90;;;;;;5072864;28;20527;-64
2023/03/04 12:39:29;;;;;;;17.45;10.63;;;4.80;99.90;;;;;;5073408;28;20179;-64
2023/03/04 12:42:27;;;;;;;17.85;11.30;;;4.70;99.90;;;;;;5087329;28;20210;-64
2023/03/04 12:44:55;;;;;;;17.60;11.70;;;4.70;99.90;;;;;;5093204;28;20239;-65
2023/03/04 12:47:50;;;;;;;16.58;11.18;;;4.80;99.90;;;;;;5093815;28;20183;-65
2023/03/04 12:50:24;;;;;;;23.25;13.02;;;4.80;99.90;;;;;;5093686;28;20171;-65
2023/03/04 12:53:13;;;;;;;19.10;12.70;;;4.80;99.90;;;;;;5091946;28;20174;-65
2023/03/04 12:55:42;;;;;;;20.40;10.48;;;4.80;99.90;;;;;;5079882;28;20586;-65
2023/03/04 12:58:18;;;;;;;22.33;12.70;;;4.90;99.90;;;;;;5073102;28;20199;-64
2023/03/04 13:00:47;;;;;;;19.38;11.95;;;4.90;99.90;;;;;;5073310;28;20185;-64
2023/03/04 13:03:47;;;;;;;20.75;10.02;;;4.90;99.90;;;;;;5072965;28;20256;-65
2023/03/04 13:06:35;;;;;;;20.67;12.07;;;4.90;99.90;;;;;;5072731;28;20188;-64
2023/03/04 13:09:10;;;;;;;22.13;12.18;;;4.80;99.90;;;;;;5073059;28;20192;-65
2023/03/04 13:11:46;;;;;;;22.25;11.80;;;4.80;99.90;;;;;;5088559;28;20184;-65
2023/03/04 13:14:16;;;;;;;19.95;11.85;;;4.80;99.90;;;;;;5096854;28;20183;-64
2023/03/04 13:16:50;;;;;;;18.08;12.48;;;4.80;99.90;;;;;;5100052;28;20170;-63
2023/03/04 13:19:55;;;;;;;22.50;13.80;;;4.80;99.90;;;;;;5099953;28;20577;-68
2023/03/04 13:22:38;;;;;;;20.75;12.85;;;4.90;99.90;;;;;;5078952;28;20225;-63
2023/03/04 13:25:35;;;;;;;23.17;11.43;;;4.80;99.90;;;;;;5098653;28;20202;-66
2023/03/04 13:28:09;;;;;;;22.33;12.00;;;4.80;99.90;;;;;;5099838;28;20170;-66
2023/03/04 13:30:36;;;;;;;26.58;10.68;;;4.70;99.90;;;;;;5099685;28;20166;-70
2023/03/04 13:33:17;;;;;;;14.93;10.55;;;4.60;99.90;;;;;;5098215;28;20589;-69
2023/03/04 13:35:45;;;;;;;16.20;10.15;;;4.60;99.90;;;;;;5099583;28;20192;-69
2023/03/04 13:38:23;;;;;;;18.80;10.75;;;4.60;99.90;;;;;;5100095;28;20160;-69
2023/03/04 13:41:04;;;;;;;16.50;9.93;;;4.60;99.90;;;;;;5092466;28;20242;-69
2023/03/04 13:43:44;;;;;;;16.05;9.63;;;4.70;99.90;;;;;;5077835;28;20571;-70
2023/03/04 13:46:19;;;;;;;15.35;11.23;;;4.70;99.90;;;;;;5079761;28;20174;-69
2023/03/04 13:48:59;;;;;;;15.73;9.65;;;4.60;99.90;;;;;;5088850;28;20221;-69
2023/03/04 13:51:43;;;;;;;16.67;10.77;;;4.60;99.90;;;;;;5077930;28;20177;-69
2023/03/04 13:54:18;;;;;;;16.52;10.50;;;4.60;99.90;;;;;;5079073;28;20190;-68
2023/03/04 13:57:08;;;;;;;13.52;10.27;;;4.60;99.90;;;;;;5079164;28;20164;-69
2023/03/04 13:59:37;;;;;;;14.65;9.48;;;4.60;99.90;;;;;;5077984;28;20178;-69
2023/03/04 14:02:17;;;;;;;14.60;9.18;;;4.60;99.90;;;;;;5078873;28;20231;-69
2023/03/04 14:04:52;;;;;;;16.27;9.38;;;4.60;99.90;;;;;;5078560;28;20671;-69
2023/03/04 14:07:20;;;;;;;13.52;9.05;;;4.50;99.90;;;;;;5077795;28;20194;-70
2023/03/04 14:10:18;;;;;;;12.57;7.70;;;4.40;99.90;;;;;;5079386;28;20195;-69
2023/03/04 14:12:47;;;;;;;16.95;10.00;;;4.40;99.90;;;;;;5077802;28;20176;-75
2023/03/04 14:15:12;;;;;;;13.52;9.10;;;4.40;99.90;;;;;;5079202;28;20245;-69
2023/03/04 14:17:43;;;;;;;17.83;9.37;;;4.40;99.90;;;;;;5083819;28;20181;-69
2023/03/04 14:20:29;;;;;;;16.38;8.15;;;4.30;99.90;;;;;;5078082;28;20636;-70
2023/03/04 14:22:56;;;;;;;13.77;7.85;;;4.30;99.90;;;;;;5078466;28;20204;-69
2023/03/04 14:25:28;;;;;;;15.13;8.88;;;4.30;99.90;;;;;;5076777;28;20194;-67
2023/03/04 14:28:11;;;;;;;13.57;8.32;;;4.30;99.90;;;;;;5082918;28;20156;-68
2023/03/04 14:30:37;;;;;;;17.92;9.75;;;4.30;99.90;;;;;;5096077;28;20167;-69
2023/03/04 14:33:07;;;;;;;13.68;8.48;;;4.30;99.90;;;;;;5095743;28;20180;-70
2023/03/04 14:35:34;;;;;;;11.38;8.43;;;4.30;99.90;;;;;;5094741;28;20563;-69
2023/03/04 14:38:02;;;;;;;18.33;10.05;;;4.20;99.90;;;;;;5096329;28;20177;-70
2023/03/04 14:40:43;;;;;;;23.25;11.57;;;4.10;99.90;;;;;;5096084;28;20225;-70
2023/03/04 14:43:19;;;;;;;17.02;10.23;;;4.10;99.90;;;;;;5084116;28;20187;-70
2023/03/04 14:45:52;;;;;;;15.75;11.32;;;4.10;99.90;;;;;;5075493;28;20200;-69
2023/03/04 14:48:33;;;;;;;9.77;8.70;;;4.00;99.90;;;;;;5075720;28;20188;-69
2023/03/04 14:51:00;;;;;;;14.95;10.02;;;4.00;99.90;;;;;;5075039;28;20652;-69
2023/03/04 14:53:31;;;;;;;13.85;10.00;;;3.90;99.90;;;;;;5073858;28;20176;-69
2023/03/04 14:56:06;;;;;;;14.63;9.25;;;3.90;99.90;;;;;;5075737;28;20193;-69
2023/03/04 14:58:38;;;;;;;21.85;11.07;;;3.90;99.90;;;;;;5074313;28;20185;-69
2023/03/04 15:01:19;;;;;;;13.18;9.82;;;3.90;99.90;;;;;;5075678;28;20193;-69
2023/03/04 15:04:12;;;;;;;16.35;10.05;;;3.90;99.90;;;;;;5074722;28;20173;-69
2023/03/04 15:06:48;;;;;;;13.50;9.38;;;3.90;99.90;;;;;;5074746;28;20231;-65
2023/03/04 15:09:22;;;;;;;13.40;10.05;;;3.90;99.90;;;;;;5075441;28;20164;-68
2023/03/04 15:11:50;;;;;;;17.48;10.25;;;3.90;99.90;;;;;;5075331;28;20177;-69
2023/03/04 15:14:50;;;;;;;17.60;9.95;;;3.90;99.90;;;;;;5074514;28;20189;-70
2023/03/04 15:17:37;;;;;;;13.80;8.40;;;4.00;99.90;;;;;;5075161;28;20255;-69
2023/03/04 15:20:06;;;;;;;11.68;8.60;;;4.00;99.90;;;;;;5075158;28;20180;-69
2023/03/04 15:22:54;;;;;;;13.07;8.90;;;3.90;99.90;;;;;;5074989;28;20219;-69
2023/03/04 15:25:21;;;;;;;14.43;8.63;;;3.90;99.90;;;;;;5073220;28;20247;-69
2023/03/04 15:27:48;;;;;;;19.50;9.63;;;3.90;99.90;;;;;;5074909;28;20166;-69
2023/03/04 15:30:28;;;;;;;15.55;8.40;;;3.90;99.90;;;;;;5073876;28;20232;-70
2023/03/04 15:32:56;;;;;;;15.00;9.65;;;3.90;99.90;;;;;;5074147;28;20177;-70
2023/03/04 15:35:23;;;;;;;16.88;8.27;;;3.90;99.90;;;;;;5074737;28;20218;-71
2023/03/04 15:37:53;;;;;;;17.02;10.88;;;3.90;99.90;;;;;;5072634;28;20528;-71
2023/03/04 15:40:29;;;;;;;15.38;9.13;;;3.90;99.90;;;;;;5074620;28;20178;-68
2023/03/04 15:42:57;;;;;;;14.63;8.80;;;3.90;99.90;;;;;;5074037;28;20210;-70
2023/03/04 15:45:35;;;;;;;15.95;9.88;;;3.90;99.90;;;;;;5074137;28;20582;-71
2023/03/04 15:48:03;;;;;;;14.52;8.30;;;3.80;99.90;;;;;;5074089;28;20574;-69
2023/03/04 15:50:29;;;;;;;12.75;9.07;;;3.80;99.90;;;;;;5074259;28;20168;-66
2023/03/04 15:53:01;;;;;;;17.48;9.55;;;3.80;99.90;;;;;;5073974;28;20176;-69
2023/03/04 15:55:28;;;;;;;14.57;9.68;;;3.80;99.90;;;;;;5077077;28;20207;-68
2023/03/04 15:57:56;;;;;;;16.15;8.32;;;3.70;99.90;;;;;;5073153;28;20180;-66
2023/03/04 16:00:22;;;;;;;17.55;9.65;;;3.70;99.90;;;;;;5073614;28;20185;-68
2023/03/04 16:02:48;;;;;;;15.20;10.25;;;3.70;99.90;;;;;;5073211;28;20205;-71
2023/03/04 16:05:14;;;;;;;16.00;9.07;;;3.70;99.90;;;;;;5073042;28;20195;-71
2023/03/04 16:07:43;;;;;;;12.15;8.35;;;3.80;99.90;;;;;;5078231;28;20178;-70
2023/03/04 16:10:25;;;;;;;17.83;9.80;;;3.80;99.90;;;;;;5071691;28;20236;-70
2023/03/04 16:12:52;;;;;;;15.30;8.73;;;3.80;99.90;;;;;;5069857;28;20199;-69
2023/03/04 16:15:23;;;;;;;13.48;9.50;;;3.70;99.90;;;;;;5073108;28;20198;-67
2023/03/04 16:17:50;;;;;;;9.80;7.70;;;3.70;99.90;;;;;;5074479;28;20177;-67
2023/03/04 16:20:20;;;;;;;14.55;9.23;;;3.70;99.90;;;;;;5073104;28;20574;-68
2023/03/04 16:22:48;;;;;;;16.42;10.73;;;3.70;99.90;;;;;;5080492;28;20199;-70
2023/03/04 16:25:16;;;;;;;19.38;10.85;;;3.70;99.90;;;;;;5093391;28;20204;-69
2023/03/04 16:27:41;;;;;;;10.48;7.20;;;3.70;99.90;;;;;;5080390;28;20174;-70
2023/03/04 16:30:13;;;;;;;11.60;6.90;;;3.70;99.90;;;;;;5081517;28;20239;-73
2023/03/04 16:32:39;;;;;;;13.85;9.00;;;3.70;99.90;;;;;;5067249;28;20427;-70
2023/03/04 16:35:05;;;;;;;17.73;10.23;;;3.70;99.90;;;;;;5075999;28;20186;-70
2023/03/04 16:37:31;;;;;;;14.15;9.05;;;3.70;99.90;;;;;;5076765;28;20181;-69
2023/03/04 16:39:58;;;;;;;13.77;8.50;;;3.70;99.90;;;;;;5076775;28;20174;-67
2023/03/04 16:42:26;;;;;;;16.00;8.65;;;3.70;99.90;;;;;;5072112;28;20303;-70
2023/03/04 16:44:52;;;;;;;21.95;8.50;;;3.70;99.90;;;;;;5084930;28;20204;-70
2023/03/04 16:47:17;;;;;;;16.02;9.18;;;3.70;99.90;;;;;;5076247;28;20238;-69
2023/03/04 16:49:43;;;;;;;14.47;9.20;;;3.70;99.90;;;;;;5073171;28;20173;-72
2023/03/04 16:52:22;;;;;;;12.60;7.60;;;3.70;99.90;;;;;;5072875;28;20667;-70
2023/03/04 16:54:48;;;;;;;14.25;8.50;;;3.70;99.90;;;;;;5073556;28;20216;-69
2023/03/04 16:57:14;;;;;;;15.85;7.97;;;3.70;99.90;;;;;;5071493;28;20708;-69
2023/03/04 16:59:41;;;;;;;12.80;8.50;;;3.70;99.90;;;;;;5092544;28;20294;-69
2023/03/04 17:02:20;;;;;;;9.93;7.25;;;3.70;99.90;;;;;;5090229;28;20495;-69
2023/03/04 17:04:48;;;;;;;15.95;8.02;;;3.70;99.90;;;;;;5091121;28;20198;-69
2023/03/04 17:07:14;;;;;;;19.35;9.35;;;3.70;99.90;;;;;;5092800;28;20187;-70
2023/03/04 17:09:39;;;;;;;20.07;12.00;;;3.70;99.90;;;;;;5093096;28;20185;-70
2023/03/04 17:12:09;;;;;;;13.93;7.67;;;3.70;99.90;;;;;;5078370;28;20192;-70
2023/03/04 17:14:34;;;;;;;13.52;9.13;;;3.70;99.90;;;;;;5090964;28;20443;-68
2023/03/04 17:17:01;;;;;;;11.53;9.07;;;3.70;99.90;;;;;;5074566;28;20243;-68
2023/03/04 17:19:27;;;;;;;11.20;8.00;;;3.70;99.90;;;;;;5074093;28;20191;-67
2023/03/04 17:21:56;;;;;;;13.60;9.20;;;3.80;99.90;;;;;;5071091;28;20251;-68
2023/03/04 17:24:22;;;;;;;13.32;8.00;;;3.80;99.90;;;;;;5087707;28;20192;-67
2023/03/04 17:26:47;;;;;;;14.27;8.40;;;3.70;99.90;;;;;;5089190;28;20169;-69
2023/03/04 17:29:13;;;;;;;12.87;7.57;;;3.70;99.90;;;;;;5071255;28;20931;-69
2023/03/04 17:31:39;;;;;;;12.90;7.80;;;3.70;99.90;;;;;;5072878;28;20699;-70
2023/03/04 17:34:04;;;;;;;16.20;10.07;;;3.70;99.90;;;;;;5072348;28;20206;-69
2023/03/04 17:36:31;;;;;;;15.38;9.55;;;3.70;99.90;;;;;;5074139;28;20256;-70
2023/03/04 17:38:58;;;;;;;15.50;9.07;;;3.80;99.90;;;;;;5072548;28;20265;-69
2023/03/04 17:41:25;;;;;;;19.98;8.85;;;3.80;99.90;;;;;;5087219;28;20977;-68
2023/03/04 17:43:53;;;;;;;15.25;10.10;;;3.70;99.90;;;;;;5073789;28;20178;-69
2023/03/04 17:46:21;;;;;;;13.93;9.20;;;3.70;99.90;;;;;;5071912;28;20163;-69
2023/03/04 17:48:47;;;;;;;16.65;10.27;;;3.80;99.90;;;;;;5072242;28;20235;-69
2023/03/04 17:51:12;;;;;;;12.68;9.20;;;3.80;99.90;;;;;;5072597;28;20185;-69
2023/03/04 17:53:38;;;;;;;15.50;9.27;;;3.80;99.90;;;;;;5087841;28;20180;-69
2023/03/04 17:56:07;;;;;;;21.63;9.67;;;3.90;99.90;;;;;;5076075;28;20188;-69
2023/03/04 17:58:35;;;;;;;25.48;10.82;;;3.90;99.90;;;;;;5082846;28;20422;-69
2023/03/04 18:01:05;;;;;;;17.27;9.95;;;3.90;99.90;;;;;;5091688;28;20177;-69
2023/03/04 18:03:32;;;;;;;18.90;9.07;;;3.90;99.90;;;;;;5094031;28;20211;-70
2023/03/04 18:05:58;;;;;;;12.68;9.57;;;3.90;99.90;;;;;;5084384;28;20201;-71
2023/03/04 18:08:23;;;;;;;11.57;8.67;;;3.90;99.90;;;;;;5080698;28;20174;-69
2023/03/04 18:10:49;;;;;;;10.93;8.33;;;4.00;99.90;;;;;;5077346;28;20208;-70